Time;durP1;ratioP1;P1;durP2;ratioP2;P2;SDS_P1;SDS_P2;PMS_P1;PMS_P2;Temp;Humidity;BMP_temperature;BMP_pressure;BME280_temperature;BME280_humidity;BME280_pressure;Samples;Min_cycle;Max_cycle;Signal;HPM_P1;HPM_P2
2022/08/22 00:00:24;;;;;;;11.23;5.38;;;;;;;15.98;100.00;101432.78;5213527;28;20106;-67
2022/08/22 00:03:02;;;;;;;14.48;5.55;;;;;;;15.91;100.00;101437.00;5220619;28;20043;-67
2022/08/22 00:05:52;;;;;;;9.55;4.60;;;;;;;15.95;100.00;101430.34;5209055;28;20033;-67
2022/08/22 00:08:57;;;;;;;10.40;4.43;;;;;;;15.98;100.00;101430.94;5233196;28;20026;-67
2022/08/22 00:11:46;;;;;;;7.90;4.60;;;;;;;15.95;100.00;101422.28;5209700;28;20504;-67
2022/08/22 00:14:55;;;;;;;10.43;4.43;;;;;;;16.03;100.00;101433.19;5203707;28;20108;-67
2022/08/22 00:17:46;;;;;;;7.78;4.38;;;;;;;16.01;100.00;101436.03;5233297;28;20052;-67
2022/08/22 00:20:32;;;;;;;9.13;4.68;;;;;;;16.01;100.00;101437.84;5203550;28;20030;-67
2022/08/22 00:23:29;;;;;;;9.80;4.57;;;;;;;16.02;100.00;101437.72;5205114;28;20443;-67
2022/08/22 00:26:07;;;;;;;12.93;4.75;;;;;;;15.96;100.00;101432.91;5205564;28;20025;-67
2022/08/22 00:28:52;;;;;;;11.95;4.80;;;;;;;15.99;100.00;101435.34;5204151;28;20578;-67
2022/08/22 00:31:30;;;;;;;16.23;5.60;;;;;;;15.97;100.00;101439.13;5204446;28;20475;-67
2022/08/22 00:34:35;;;;;;;14.05;5.85;;;;;;;16.05;100.00;101432.09;5206218;28;20034;-67
2022/08/22 00:37:13;;;;;;;;;;;;;;;16.11;100.00;101436.06;5205359;28;20029;-67
2022/08/22 00:39:44;;;;;;;16.23;5.32;;;;;;;16.06;100.00;101432.91;5205481;28;19918;-67
2022/08/22 00:42:36;;;;;;;14.27;5.47;;;;;;;16.05;100.00;101426.69;5206030;28;20034;-68
2022/08/22 00:45:29;;;;;;;14.30;5.90;;;;;;;16.02;100.00;101426.97;5201036;28;20054;-67
2022/08/22 00:48:26;;;;;;;14.48;5.25;;;;;;;16.02;100.00;101429.66;5206744;28;20220;-67
2022/08/22 00:51:08;;;;;;;13.77;5.30;;;;;;;16.08;100.00;101436.31;5223390;28;20178;-67
2022/08/22 00:53:46;;;;;;;13.20;5.13;;;;;;;16.00;100.00;101441.56;5217274;28;20029;-67
2022/08/22 00:56:46;;;;;;;10.82;4.65;;;;;;;16.03;100.00;101430.50;5210552;28;20420;-67
2022/08/22 00:59:45;;;;;;;11.27;4.85;;;;;;;16.02;100.00;101444.97;5214565;28;20565;-67
2022/08/22 01:02:35;;;;;;;13.50;5.30;;;;;;;16.00;100.00;101438.88;5203230;28;20026;-67
2022/08/22 01:05:06;;;;;;;9.82;5.15;;;;;;;15.96;100.00;101440.13;5204939;28;20065;-67
2022/08/22 01:07:49;;;;;;;10.10;4.60;;;;;;;15.95;100.00;101441.94;5200705;28;20052;-67
2022/08/22 01:10:29;;;;;;;10.95;5.07;;;;;;;15.99;100.00;101442.53;5199588;28;20033;-67
2022/08/22 01:13:20;;;;;;;11.18;5.22;;;;;;;15.99;100.00;101426.38;5210859;28;20036;-67
2022/08/22 01:16:09;;;;;;;11.13;6.03;;;;;;;15.95;100.00;101424.97;5203857;28;20102;-67
2022/08/22 01:19:07;;;;;;;9.65;5.18;;;;;;;15.99;100.00;101427.25;5201351;28;20094;-67
2022/08/22 01:22:10;;;;;;;10.95;6.65;;;;;;;15.98;100.00;101422.84;5203280;28;20043;-67
2022/08/22 01:25:18;;;;;;;9.23;6.88;;;;;;;16.00;100.00;101428.09;5202668;28;20036;-67
2022/08/22 01:28:16;;;;;;;12.25;7.63;;;;;;;15.96;100.00;101424.84;5202208;28;20304;-67
2022/08/22 01:31:22;;;;;;;12.43;8.02;;;;;;;15.95;100.00;101423.13;5203656;28;20054;-67
2022/08/22 01:34:22;;;;;;;11.70;8.13;;;;;;;15.94;100.00;101432.19;5198646;28;20211;-67
2022/08/22 01:37:29;;;;;;;13.18;7.85;;;;;;;15.94;100.00;101428.66;5198259;28;20160;-67
2022/08/22 01:40:44;;;;;;;10.75;7.68;;;;;;;15.90;100.00;101432.59;5213548;28;20038;-67
2022/08/22 01:43:49;;;;;;;11.55;7.65;;;;;;;15.88;100.00;101430.91;5252529;28;20415;-67
2022/08/22 01:46:50;;;;;;;11.73;8.27;;;;;;;15.90;100.00;101424.50;5205796;28;20420;-67
2022/08/22 01:49:34;;;;;;;13.48;8.18;;;;;;;15.90;100.00;101427.22;5202479;28;20038;-67
2022/08/22 01:52:14;;;;;;;12.63;8.03;;;;;;;15.82;100.00;101418.00;5204457;28;20113;-68
2022/08/22 01:54:49;;;;;;;13.93;8.40;;;;;;;15.82;100.00;101425.22;5220304;28;20048;-67
2022/08/22 01:57:25;;;;;;;14.50;8.15;;;;;;;15.82;100.00;101427.91;5208282;28;20025;-67
2022/08/22 02:00:00;;;;;;;14.82;8.82;;;;;;;15.83;100.00;101421.53;5216059;28;21090;-67
2022/08/22 02:02:58;;;;;;;11.85;8.27;;;;;;;15.84;100.00;101431.31;5219056;28;20200;-67
2022/08/22 02:05:37;;;;;;;14.18;8.25;;;;;;;15.82;100.00;101422.50;5221709;28;20168;-67
2022/08/22 02:08:28;;;;;;;13.77;8.27;;;;;;;15.83;100.00;101417.00;5221245;28;20030;-67
2022/08/22 02:11:10;;;;;;;12.95;8.40;;;;;;;15.78;100.00;101424.66;5201919;28;20034;-67
2022/08/22 02:14:06;;;;;;;12.48;7.85;;;;;;;15.82;100.00;101425.22;5218502;28;20100;-67
2022/08/22 02:16:41;;;;;;;13.65;7.82;;;;;;;15.84;100.00;101423.25;5225320;28;20167;-67
2022/08/22 02:19:15;;;;;;;13.23;8.23;;;;;;;15.88;100.00;101414.75;5202755;28;20037;-67
2022/08/22 02:21:57;;;;;;;;;;;;;;;15.94;100.00;101418.75;5210022;28;20053;-67
2022/08/22 02:24:57;;;;;;;13.02;7.55;;;;;;;15.92;100.00;101420.72;5206155;28;20673;-67
2022/08/22 02:27:40;;;;;;;12.80;8.02;;;;;;;15.92;100.00;101414.50;5204427;28;20383;-67
2022/08/22 02:30:15;;;;;;;12.35;8.40;;;;;;;15.86;100.00;101413.19;5200448;28;20037;-67
2022/08/22 02:32:58;;;;;;;13.23;8.07;;;;;;;15.82;100.00;101420.69;5208304;28;20034;-67
2022/08/22 02:35:42;;;;;;;13.57;8.27;;;;;;;15.85;100.00;101406.94;5205998;28;20049;-67
2022/08/22 02:38:41;;;;;;;15.00;8.57;;;;;;;15.85;100.00;101406.94;5203521;28;20022;-67
2022/08/22 02:41:25;;;;;;;11.20;7.85;;;;;;;15.81;100.00;101402.84;5209335;28;20029;-67
2022/08/22 02:44:03;;;;;;;15.23;8.98;;;;;;;15.83;100.00;101400.84;5210496;28;20034;-67
2022/08/22 02:46:54;;;;;;;12.60;8.07;;;;;;;15.79;100.00;101412.03;5204099;28;20141;-67
2022/08/22 02:49:52;;;;;;;12.65;7.82;;;;;;;15.85;100.00;101406.94;5206142;28;20034;-67
2022/08/22 02:52:31;;;;;;;13.13;8.07;;;;;;;15.81;100.00;101412.75;5210206;28;20045;-67
2022/08/22 02:55:12;;;;;;;13.90;9.18;;;;;;;15.79;100.00;101407.50;5205457;28;20472;-67
2022/08/22 02:58:03;;;;;;;13.10;8.20;;;;;;;15.81;100.00;101408.22;5209484;28;20033;-67
2022/08/22 03:00:49;;;;;;;13.80;8.30;;;;;;;15.81;100.00;101410.06;5216877;28;20027;-67
2022/08/22 03:03:27;;;;;;;13.38;8.27;;;;;;;15.80;100.00;101411.91;5211093;28;20045;-67
2022/08/22 03:06:25;;;;;;;13.07;8.65;;;;;;;15.79;100.00;101406.66;5212672;28;20164;-67
2022/08/22 03:09:19;;;;;;;14.88;8.52;;;;;;;15.79;100.00;101409.34;5183906;28;20179;-67
2022/08/22 03:12:21;;;;;;;15.45;9.00;;;;;;;15.80;100.00;101417.28;5206556;28;20041;-67
2022/08/22 03:15:25;;;;;;;14.55;8.90;;;;;;;15.79;100.00;101412.88;5203784;28;20094;-67
2022/08/22 03:18:14;;;;;;;16.38;9.90;;;;;;;15.80;100.00;101409.22;5203610;28;20052;-67
2022/08/22 03:20:53;;;;;;;14.93;8.95;;;;;;;15.70;100.00;101405.59;5223295;28;20622;-67
2022/08/22 03:24:10;;;;;;;13.13;9.98;;;;;;;15.74;100.00;101400.84;5216042;28;20033;-67
2022/08/22 03:27:00;;;;;;;15.57;9.45;;;;;;;15.68;100.00;101386.06;5154862;28;20049;-67
2022/08/22 03:29:37;;;;;;;17.40;10.07;;;;;;;15.62;100.00;101389.31;5206884;28;20544;-67
2022/08/22 03:32:13;;;;;;;12.57;9.30;;;;;;;15.58;100.00;101387.88;5201156;28;20033;-67
2022/08/22 03:34:55;;;;;;;15.25;9.20;;;;;;;15.56;100.00;101392.53;5202903;28;20081;-67
2022/08/22 03:37:41;;;;;;;16.20;9.95;;;;;;;15.59;100.00;101382.38;5208692;28;20026;-67
2022/08/22 03:40:18;;;;;;;13.98;9.35;;;;;;;15.51;100.00;101384.88;5200069;28;20045;-67
2022/08/22 03:43:20;;;;;;;15.68;10.43;;;;;;;15.49;100.00;101389.53;5207307;28;20038;-66
2022/08/22 03:46:20;;;;;;;15.02;9.63;;;;;;;15.44;100.00;101381.03;5209717;28;20068;-67
2022/08/22 03:49:25;;;;;;;15.20;9.52;;;;;;;15.42;100.00;101381.19;5215027;28;20042;-67
2022/08/22 03:52:24;;;;;;;12.27;9.48;;;;;;;15.29;100.00;101375.19;5215878;28;20037;-67
2022/08/22 03:55:26;;;;;;;13.35;10.15;;;;;;;15.26;100.00;101375.44;5200174;28;20090;-67
2022/08/22 03:58:18;;;;;;;14.82;10.02;;;;;;;15.18;100.00;101369.88;5201556;28;20425;-67
2022/08/22 04:01:13;;;;;;;15.00;10.23;;;;;;;15.13;100.00;101373.00;5215637;28;20041;-67
2022/08/22 04:04:39;;;;;;;15.20;10.02;;;;;;;15.14;100.00;101372.00;5212897;28;20487;-67
2022/08/22 04:07:24;;;;;;;15.63;10.02;;;;;;;14.99;100.00;101371.47;5218883;28;20052;-67
2022/08/22 04:10:18;;;;;;;15.43;9.82;;;;;;;14.88;100.00;101375.13;5194183;28;20475;-67
2022/08/22 04:13:20;;;;;;;14.35;9.88;;;;;;;14.88;100.00;101374.25;5197900;28;20052;-67
2022/08/22 04:16:06;;;;;;;16.58;10.68;;;;;;;14.90;100.00;101385.75;5214995;28;20044;-67
2022/08/22 04:19:02;;;;;;;13.60;10.52;;;;;;;14.89;100.00;101384.88;5202695;28;20030;-67
2022/08/22 04:21:58;;;;;;;14.75;11.30;;;;;;;14.88;100.00;101385.88;5217615;28;20549;-67
2022/08/22 04:25:00;;;;;;;17.17;10.95;;;;;;;14.94;100.00;101394.38;5203690;28;20472;-67
2022/08/22 04:27:43;;;;;;;14.23;10.65;;;;;;;14.99;100.00;101394.81;5208426;28;20376;-67
2022/08/22 04:30:33;;;;;;;14.50;10.13;;;;;;;14.95;100.00;101393.41;5201588;28;20030;-67
2022/08/22 04:33:22;;;;;;;16.38;11.10;;;;;;;15.02;100.00;101397.25;5207733;28;20514;-67
2022/08/22 04:36:07;;;;;;;15.30;10.90;;;;;;;15.05;100.00;101396.97;5208191;28;20086;-67
2022/08/22 04:38:52;;;;;;;17.63;10.77;;;;;;;14.98;100.00;101393.97;5204946;28;20117;-67
2022/08/22 04:41:47;;;;;;;15.98;10.60;;;;;;;15.09;100.00;101384.97;5202938;28;20049;-67
2022/08/22 04:44:26;;;;;;;17.63;10.27;;;;;;;15.05;100.00;101386.22;5206035;28;20036;-67
2022/08/22 04:47:25;;;;;;;14.10;10.50;;;;;;;15.10;100.00;101387.53;5202327;28;20114;-67
2022/08/22 04:50:20;;;;;;;17.27;11.18;;;;;;;15.07;100.00;101395.00;5208715;28;20144;-67
2022/08/22 04:53:36;;;;;;;16.17;10.57;;;;;;;15.12;100.00;101394.63;5202846;28;20037;-66
2022/08/22 04:56:34;;;;;;;17.10;10.25;;;;;;;15.13;100.00;101401.69;5208071;28;20057;-67
2022/08/22 04:59:15;;;;;;;14.98;10.25;;;;;;;15.16;100.00;101409.50;5202351;28;20108;-67
2022/08/22 05:01:59;;;;;;;16.98;9.73;;;;;;;15.16;100.00;101406.81;5201548;28;21143;-67
2022/08/22 05:04:46;;;;;;;15.27;10.25;;;;;;;15.21;100.00;101404.59;5202366;28;20037;-67
2022/08/22 05:07:26;;;;;;;14.80;10.27;;;;;;;15.20;100.00;101401.00;5201312;28;20035;-67
2022/08/22 05:10:01;;;;;;;17.10;10.57;;;;;;;15.24;100.00;101404.28;5198529;28;20034;-67
2022/08/22 05:12:38;;;;;;;15.73;9.52;;;;;;;15.24;100.00;101407.81;5204806;28;20088;-67
2022/08/22 05:15:18;;;;;;;18.77;11.63;;;;;;;15.35;100.00;101411.44;5205771;28;20491;-67
2022/08/22 05:17:55;;;;;;;14.93;10.05;;;;;;;15.38;100.00;101412.03;5206991;28;20124;-67
2022/08/22 05:20:27;;;;;;;17.30;10.80;;;;;;;15.48;100.00;101406.69;5210270;28;20033;-67
2022/08/22 05:23:06;;;;;;;14.98;10.43;;;;;;;15.50;100.00;101418.16;5208112;28;21746;-67
2022/08/22 05:25:41;;;;;;;17.42;11.15;;;;;;;15.61;100.00;101415.34;5204814;28;20483;-67
2022/08/22 05:28:27;;;;;;;14.98;11.15;;;;;;;15.66;100.00;101412.25;5205517;28;20483;-67
2022/08/22 05:31:03;;;;;;;15.48;11.00;;;;;;;15.67;100.00;101411.28;5204517;28;20104;-67
2022/08/22 05:33:46;;;;;;;16.40;11.02;;;;;;;15.72;100.00;101419.75;5206078;28;20033;-67
2022/08/22 05:36:24;;;;;;;14.68;10.40;;;;;;;15.73;100.00;101421.50;5206086;28;20496;-68
2022/08/22 05:38:59;;;;;;;15.32;10.70;;;;;;;15.78;100.00;101427.34;5204328;28;20543;-67
2022/08/22 05:41:36;;;;;;;16.23;10.77;;;;;;;15.83;100.00;101421.53;5204185;28;20041;-67
2022/08/22 05:44:19;;;;;;;15.38;10.10;;;;;;;15.87;100.00;101421.13;5204595;28;20061;-67
2022/08/22 05:47:00;;;;;;;17.35;10.63;;;;;;;15.95;100.00;101424.97;5207197;28;20407;-67
2022/08/22 05:49:44;;;;;;;14.48;10.20;;;;;;;15.92;100.00;101426.09;5199564;28;20049;-67
2022/08/22 05:52:36;;;;;;;17.55;11.02;;;;;;;15.99;100.00;101419.19;5205552;28;20034;-67
2022/08/22 05:55:17;;;;;;;14.40;9.95;;;;;;;16.01;100.00;101421.72;5207931;28;20240;-67
2022/08/22 05:58:06;;;;;;;16.40;10.98;;;;;;;16.12;100.00;101415.38;5207175;28;20030;-67
2022/08/22 06:00:43;;;;;;;19.38;10.90;;;;;;;16.16;100.00;101416.78;5211119;28;20511;-67
2022/08/22 06:03:18;;;;;;;13.90;11.07;;;;;;;16.23;100.00;101413.38;5221335;28;20075;-67
2022/08/22 06:05:54;;;;;;;13.27;10.07;;;;;;;16.27;100.00;101419.34;5210876;28;20116;-67
2022/08/22 06:08:39;;;;;;;15.02;10.27;;;;;;;16.35;100.00;101421.34;5211947;28;20037;-67
2022/08/22 06:11:19;;;;;;;12.60;9.60;;;;;;;16.37;100.00;101419.34;5206815;28;20037;-67
2022/08/22 06:14:25;;;;;;;13.25;10.70;;;;;;;16.39;100.00;101420.91;5206607;28;20117;-67
2022/08/22 06:17:09;;;;;;;15.52;10.57;;;;;;;16.52;100.00;101422.47;5219866;28;20448;-67
2022/08/22 06:19:45;;;;;;;14.30;10.15;;;;;;;16.60;100.00;101419.91;5201806;28;20090;-67
2022/08/22 06:22:22;;;;;;;18.52;10.70;;;;;;;16.60;100.00;101418.06;5209576;28;20040;-67
2022/08/22 06:25:05;;;;;;;16.83;10.68;;;;;;;16.66;100.00;101422.03;5207821;28;20030;-67
2022/08/22 06:27:37;;;;;;;13.13;10.63;;;;;;;16.76;100.00;101428.28;5210842;28;20033;-67
2022/08/22 06:30:13;;;;;;;16.08;11.20;;;;;;;16.82;100.00;101424.19;5205508;28;20030;-66
2022/08/22 06:32:52;;;;;;;20.80;10.75;;;;;;;16.90;100.00;101428.88;5209668;28;20536;-66
2022/08/22 06:36:29;;;;;;;17.45;11.20;;;;;;;16.90;100.00;101435.09;5205743;28;20488;-66
2022/08/22 06:38:27;;;;;;;15.20;11.43;;;;;;;17.06;100.00;101429.09;5202349;28;20037;-66
2022/08/22 06:41:05;;;;;;;18.52;11.07;;;;;;;17.13;100.00;101438.31;5203431;28;20026;-64
2022/08/22 06:43:41;;;;;;;14.50;11.02;;;;;;;17.18;100.00;101432.47;5201931;28;20033;-66
2022/08/22 06:46:15;;;;;;;13.90;10.98;;;;;;;17.25;100.00;101431.75;5202590;28;20415;-65
2022/08/22 06:48:47;;;;;;;18.92;11.20;;;;;;;17.44;100.00;101438.91;5201199;28;20476;-66
2022/08/22 06:51:20;;;;;;;14.85;11.40;;;;;;;17.37;100.00;101445.06;5210993;28;20038;-66
2022/08/22 06:53:56;;;;;;;16.10;12.35;;;;;;;17.46;100.00;101448.72;5203877;28;20029;-66
2022/08/22 06:56:37;;;;;;;16.17;11.82;;;;;;;17.53;100.00;101439.06;5209223;28;20399;-66
2022/08/22 06:59:15;;;;;;;17.55;12.55;;;;;;;17.62;100.00;101448.94;5207275;28;20041;-66
2022/08/22 07:02:02;;;;;;;16.52;10.68;;;;;;;17.57;100.00;101459.34;5208113;28;20467;-66
2022/08/22 07:04:33;;;;;;;17.20;11.93;;;;;;;17.60;100.00;101456.31;5205991;28;20159;-66
2022/08/22 07:07:04;;;;;;;15.95;11.43;;;;;;;17.64;100.00;101455.03;5210158;28;20456;-67
2022/08/22 07:09:39;;;;;;;17.90;11.75;;;;;;;17.64;100.00;101457.72;5209680;28;20030;-66
2022/08/22 07:12:17;;;;;;;16.38;11.73;;;;;;;17.78;100.00;101457.25;5208882;28;20030;-66
2022/08/22 07:14:50;;;;;;;16.10;12.30;;;;;;;17.74;100.00;101461.25;5206320;28;20928;-66
2022/08/22 07:17:28;;;;;;;17.55;12.35;;;;;;;17.85;100.00;101462.91;5206776;28;20026;-65
2022/08/22 07:20:22;;;;;;;15.25;12.40;;;;;;;17.91;100.00;101458.75;5206162;28;20034;-66
2022/08/22 07:23:02;;;;;;;19.93;13.33;;;;;;;17.94;100.00;101461.19;5208673;28;20071;-65
2022/08/22 07:25:50;;;;;;;19.13;13.27;;;;;;;18.04;100.00;101459.25;5205864;28;20383;-65
2022/08/22 07:28:39;;;;;;;19.83;13.65;;;;;;;18.11;100.00;101463.06;5204543;28;20051;-66
2022/08/22 07:31:29;;;;;;;18.85;13.05;;;;;;;18.22;100.00;101446.63;5205822;28;20518;-66
2022/08/22 07:34:09;;;;;;;16.23;12.98;;;;;;;18.38;100.00;101442.41;5210836;28;20150;-67
2022/08/22 07:36:51;;;;;;;17.40;12.98;;;;;;;18.51;100.00;101447.44;5208560;28;20029;-66
2022/08/22 07:39:36;;;;;;;18.88;13.15;;;;;;;18.72;100.00;101442.56;5209718;28;20034;-66
2022/08/22 07:42:17;;;;;;;15.85;12.55;;;;;;;18.92;100.00;101448.63;5208267;28;20030;-66
2022/08/22 07:45:20;;;;;;;18.83;12.48;;;;;;;19.22;100.00;101432.97;5206197;28;20029;-66
2022/08/22 07:48:00;;;;;;;17.27;11.68;;;;;;;19.52;99.96;101433.44;5204739;28;20045;-66
2022/08/22 07:50:41;;;;;;;18.40;12.60;;;;;;;19.50;95.41;101439.06;5198354;28;20052;-66
2022/08/22 07:53:27;;;;;;;17.65;12.43;;;;;;;19.88;97.38;101439.56;5209475;28;20406;-66
2022/08/22 07:56:00;;;;;;;16.15;12.20;;;;;;;19.98;94.45;101442.13;5203330;28;20025;-66
2022/08/22 07:58:38;;;;;;;16.23;11.57;;;;;;;20.09;94.00;101441.81;5207174;28;20090;-68
2022/08/22 08:01:15;;;;;;;16.60;11.50;;;;;;;20.13;96.15;101437.75;5206982;28;20026;-66
2022/08/22 08:04:00;;;;;;;14.68;11.48;;;;;;;20.19;93.16;101436.25;5201535;28;20118;-66
2022/08/22 08:06:33;;;;;;;17.25;10.80;;;;;;;20.15;91.99;101435.78;5205431;28;20034;-66
2022/08/22 08:09:11;;;;;;;17.15;11.48;;;;;;;20.41;91.86;101432.06;5202259;28;20507;-67
2022/08/22 08:11:43;;;;;;;15.00;10.48;;;;;;;20.28;93.16;101434.44;5210311;28;20030;-66
2022/08/22 08:14:15;;;;;;;14.93;10.43;;;;;;;20.42;92.57;101424.78;5211148;28;20037;-66
2022/08/22 08:16:53;;;;;;;16.35;11.00;;;;;;;20.52;93.44;101414.66;5219342;28;20022;-66
2022/08/22 08:19:24;;;;;;;15.13;11.15;;;;;;;20.59;91.93;101418.34;5210446;28;20041;-66
2022/08/22 08:21:57;;;;;;;17.33;10.98;;;;;;;20.67;89.79;101412.13;5206003;28;20033;-66
2022/08/22 08:24:37;;;;;;;15.65;10.07;;;;;;;20.87;89.42;101412.63;5205622;28;20038;-66
2022/08/22 08:30:15;;;;;;;15.27;9.48;;;;;;;21.11;89.44;101414.44;5205617;28;20030;-66
2022/08/22 08:32:52;;;;;;;15.82;9.63;;;;;;;21.40;88.38;101408.44;5209670;28;20039;-66
2022/08/22 08:35:27;;;;;;;13.95;8.70;;;;;;;21.43;83.71;101418.09;5210012;28;20030;-66
2022/08/22 08:38:06;;;;;;;16.23;8.95;;;;;;;21.60;82.46;101414.31;5205790;28;20022;-66
2022/08/22 08:41:21;;;;;;;14.45;8.80;;;;;;;21.86;85.18;101426.75;5214106;28;20050;-66
2022/08/22 08:43:58;;;;;;;14.57;8.70;;;;;;;22.05;81.51;101418.19;5212823;28;20071;-66
2022/08/22 08:46:59;;;;;;;11.25;5.63;;;;;;;22.12;83.54;101413.69;5209998;28;20116;-66
2022/08/22 08:49:41;;;;;;;11.98;5.25;;;;;;;22.25;82.34;101418.59;5211177;28;20069;-66
2022/08/22 08:52:25;;;;;;;12.80;7.10;;;;;;;22.34;80.15;101413.94;5206008;28;20037;-66
2022/08/22 08:55:10;;;;;;;8.98;5.90;;;;;;;22.35;77.77;101404.75;5210641;28;20038;-66
2022/08/22 08:58:24;;;;;;;10.07;5.65;;;;;;;22.43;82.75;101409.28;5219211;28;20025;-66
2022/08/22 09:01:37;;;;;;;12.57;4.82;;;;;;;22.42;77.95;101405.72;5206196;28;20025;-66
2022/08/22 09:04:50;;;;;;;9.38;4.15;;;;;;;22.61;79.74;101408.94;5203443;28;20034;-66
2022/08/22 09:07:29;;;;;;;9.35;3.08;;;;;;;22.59;73.27;101403.72;5212205;28;20042;-66
2022/08/22 09:10:26;;;;;;;9.13;3.63;;;;;;;22.69;76.75;101406.19;5211307;28;20072;-66
2022/08/22 09:13:24;;;;;;;10.13;3.90;;;;;;;22.66;77.63;101401.09;5212203;28;20065;-66
2022/08/22 09:16:33;;;;;;;9.52;3.70;;;;;;;22.72;75.16;101403.06;5211407;28;20030;-66
2022/08/22 09:19:31;;;;;;;7.43;3.58;;;;;;;22.70;76.93;101399.69;5209026;28;20038;-66
2022/08/22 09:22:16;;;;;;;9.18;3.58;;;;;;;22.77;75.59;101400.66;5211350;28;20384;-66
2022/08/22 09:24:54;;;;;;;8.05;3.97;;;;;;;22.72;75.36;101397.63;5208336;28;20034;-66
2022/08/22 09:27:34;;;;;;;9.00;4.10;;;;;;;22.74;76.57;101401.00;5210853;28;20026;-66
2022/08/22 09:30:14;;;;;;;9.30;3.80;;;;;;;22.83;77.09;101396.34;5204738;28;20915;-66
2022/08/22 09:32:53;;;;;;;13.15;5.00;;;;;;;22.85;77.13;101389.69;5204574;28;20040;-66
2022/08/22 09:35:43;;;;;;;8.48;3.58;;;;;;;23.01;74.76;101402.31;5211490;28;20029;-66
2022/08/22 09:38:22;;;;;;;8.48;3.70;;;;;;;23.01;72.37;101396.00;5210860;28;20025;-66
2022/08/22 09:41:00;;;;;;;9.10;3.50;;;;;;;23.10;74.34;101400.34;5217965;28;20491;-66
2022/08/22 09:43:39;;;;;;;7.70;3.63;;;;;;;23.19;73.65;101393.81;5199445;28;20462;-66
2022/08/22 09:46:24;;;;;;;10.75;4.40;;;;;;;23.14;67.69;101401.66;5207289;28;20033;-66
2022/08/22 09:49:08;;;;;;;9.48;3.63;;;;;;;23.31;71.96;101402.34;5202884;28;20096;-66
2022/08/22 09:52:01;;;;;;;7.97;3.08;;;;;;;23.43;71.62;101402.72;5203569;28;20041;-66
2022/08/22 09:54:46;;;;;;;9.88;3.50;;;;;;;23.31;70.29;101409.66;5206874;28;20030;-66
2022/08/22 09:57:39;;;;;;;7.50;2.85;;;;;;;23.40;71.04;101395.78;5207711;28;20588;-66
2022/08/22 10:00:16;;;;;;;8.10;2.85;;;;;;;23.38;67.19;101400.56;5204383;28;20472;-66
2022/08/22 10:03:05;;;;;;;9.77;3.65;;;;;;;23.58;68.64;101398.09;5207413;28;20451;-66
2022/08/22 10:05:45;;;;;;;10.85;2.83;;;;;;;23.66;68.14;101400.72;5204677;28;20033;-66
2022/08/22 10:08:31;;;;;;;6.68;2.50;;;;;;;23.80;68.50;101390.88;5206886;28;20083;-66
2022/08/22 10:11:27;;;;;;;8.25;3.10;;;;;;;23.92;62.58;101383.03;5205150;28;20045;-66
2022/08/22 10:14:10;;;;;;;7.32;2.67;;;;;;;23.99;64.46;101383.94;5202042;28;20102;-66
2022/08/22 10:17:17;;;;;;;6.47;3.05;;;;;;;24.21;66.39;101376.63;5205364;28;20490;-66
2022/08/22 10:19:57;;;;;;;8.55;3.03;;;;;;;24.15;64.64;101376.56;5212108;28;20042;-66
2022/08/22 10:22:53;;;;;;;8.18;2.90;;;;;;;24.33;62.86;101374.22;5205843;28;20042;-66
2022/08/22 10:25:37;;;;;;;11.38;3.00;;;;;;;24.26;58.67;101382.34;5203177;28;20033;-66
2022/08/22 10:28:17;;;;;;;8.75;3.28;;;;;;;24.25;59.99;101371.63;5215658;28;20037;-66
2022/08/22 10:31:18;;;;;;;8.30;2.90;;;;;;;24.24;65.03;101369.94;5204412;28;20041;-66
2022/08/22 10:33:52;;;;;;;13.25;3.83;;;;;;;24.21;59.56;101362.16;5203082;28;20122;-66
2022/08/22 10:36:38;;;;;;;10.07;3.50;;;;;;;24.36;60.47;101364.81;5207206;28;20065;-66
2022/08/22 10:39:17;;;;;;;11.10;3.45;;;;;;;24.25;59.25;101371.63;5204979;28;20033;-66
2022/08/22 10:42:28;;;;;;;7.88;3.38;;;;;;;24.36;61.62;101362.91;5213981;28;20034;-66
2022/08/22 10:45:27;;;;;;;10.43;3.67;;;;;;;24.33;63.37;101357.00;5211056;28;20033;-66
2022/08/22 10:48:21;;;;;;;7.93;2.78;;;;;;;24.25;64.26;101358.81;5207693;28;20086;-66
2022/08/22 10:51:02;;;;;;;7.75;2.60;;;;;;;24.13;59.20;101354.09;5204753;28;21623;-66
2022/08/22 10:53:55;;;;;;;10.93;2.60;;;;;;;24.17;62.13;101349.94;5212170;28;20030;-66
2022/08/22 10:56:40;;;;;;;8.30;2.20;;;;;;;24.17;59.62;101344.50;5210952;28;20030;-66
2022/08/22 10:59:31;;;;;;;6.43;2.13;;;;;;;24.23;61.54;101343.69;5215124;28;20026;-66
2022/08/22 11:02:33;;;;;;;6.50;2.40;;;;;;;24.29;61.58;101347.53;5204719;28;20108;-66
2022/08/22 11:05:24;;;;;;;10.82;2.50;;;;;;;24.27;59.60;101347.72;5206172;28;20037;-66
2022/08/22 11:08:14;;;;;;;8.60;2.55;;;;;;;24.33;60.20;101343.38;5203057;28;20024;-67
2022/08/22 11:11:00;;;;;;;8.82;2.72;;;;;;;24.41;58.78;101352.28;5206620;28;20493;-66
2022/08/22 11:13:40;;;;;;;7.22;2.80;;;;;;;24.56;60.28;101348.63;5211839;28;20053;-66
2022/08/22 11:16:30;;;;;;;7.65;2.90;;;;;;;24.84;60.28;101354.94;5208547;28;20101;-66
2022/08/22 11:19:08;;;;;;;9.20;2.58;;;;;;;24.94;61.97;101353.75;5188595;28;20065;-66
2022/08/22 11:22:05;;;;;;;7.72;2.63;;;;;;;25.02;56.50;101350.84;5196891;28;20438;-66
2022/08/22 11:25:09;;;;;;;7.88;3.25;;;;;;;25.28;57.73;101350.19;5186126;28;20038;-66
2022/08/22 11:28:14;;;;;;;5.80;2.10;;;;;;;25.30;54.76;101347.25;5203361;28;20041;-66
2022/08/22 11:31:02;;;;;;;6.47;2.30;;;;;;;25.51;56.53;101347.13;5204074;28;20037;-66
2022/08/22 11:33:41;;;;;;;7.90;2.85;;;;;;;25.50;54.50;101342.72;5208431;28;20049;-66
2022/08/22 11:36:21;;;;;;;8.15;2.80;;;;;;;25.46;56.00;101346.91;5208963;28;20034;-68
2022/08/22 11:39:06;;;;;;;9.00;2.75;;;;;;;25.37;52.65;101340.78;5201112;28;20375;-67
2022/08/22 11:42:09;;;;;;;6.55;2.17;;;;;;;25.66;56.12;101340.66;5202419;28;20040;-66
2022/08/22 11:44:51;;;;;;;8.88;2.65;;;;;;;25.59;57.32;101341.47;5206008;28;20038;-66
2022/08/22 11:47:28;;;;;;;9.38;2.65;;;;;;;25.62;49.23;101335.63;5200605;28;20045;-66
2022/08/22 11:50:17;;;;;;;10.50;2.50;;;;;;;25.66;50.14;101327.84;5202610;28;20403;-66
2022/08/22 11:52:56;;;;;;;6.85;2.78;;;;;;;25.70;52.22;101331.84;5202392;28;20557;-66
2022/08/22 11:56:09;;;;;;;7.95;2.65;;;;;;;25.70;50.01;101329.13;5204925;28;20578;-66
2022/08/22 11:58:54;;;;;;;6.03;2.38;;;;;;;25.59;50.95;101329.72;5205329;28;20423;-66
2022/08/22 12:01:40;;;;;;;6.18;2.28;;;;;;;25.65;52.72;101330.78;5211467;28;20034;-66
2022/08/22 12:04:38;;;;;;;6.65;2.50;;;;;;;25.71;53.39;101324.50;5205018;28;20026;-66
2022/08/22 12:07:25;;;;;;;7.82;2.35;;;;;;;25.81;51.51;101324.94;5197740;28;20036;-66
2022/08/22 12:10:13;;;;;;;10.20;2.70;;;;;;;25.69;53.75;101334.78;5204012;28;20042;-66
2022/08/22 12:12:51;;;;;;;6.25;2.33;;;;;;;25.71;51.37;101333.53;5205001;28;20022;-66
2022/08/22 12:15:29;;;;;;;6.43;2.15;;;;;;;25.55;51.09;101326.56;5207911;28;20447;-66
2022/08/22 12:18:27;;;;;;;6.72;2.50;;;;;;;25.70;50.97;101320.09;5201833;28;20050;-66
2022/08/22 12:21:16;;;;;;;8.68;2.83;;;;;;;25.66;54.56;101322.38;5205553;28;20496;-66
2022/08/22 12:23:59;;;;;;;8.00;2.65;;;;;;;25.56;55.64;101330.97;5212823;28;21442;-66
2022/08/22 12:26:36;;;;;;;6.10;2.50;;;;;;;25.43;52.74;101323.56;5203952;28;20033;-67
2022/08/22 12:29:10;;;;;;;7.30;2.63;;;;;;;25.35;56.15;101326.50;5204229;28;20155;-66
2022/08/22 12:32:00;;;;;;;9.80;2.80;;;;;;;25.36;50.31;101321.84;5207490;28;20186;-66
2022/08/22 12:34:41;;;;;;;9.07;2.50;;;;;;;25.43;53.61;101320.84;5209213;28;20026;-66
2022/08/22 12:37:41;;;;;;;8.32;2.70;;;;;;;25.45;50.36;101323.38;5199717;28;20091;-66
2022/08/22 12:40:30;;;;;;;6.13;2.33;;;;;;;25.53;52.63;101325.06;5187665;28;20379;-66
2022/08/22 12:43:14;;;;;;;7.85;2.80;;;;;;;25.35;50.95;101321.03;5209644;28;20033;-66